Time;durP1;ratioP1;P1;durP2;ratioP2;P2;SDS_P1;SDS_P2;PMS_P1;PMS_P2;Temp;Humidity;BMP_temperature;BMP_pressure;BME280_temperature;BME280_humidity;BME280_pressure;Samples;Min_cycle;Max_cycle;Signal;HPM_P1;HPM_P2
2023/01/13 00:01:09;;;;;;;2.50;1.15;;;11.00;99.90;;;;;;5010105;28;20041;-55
2023/01/13 00:03:36;;;;;;;2.92;1.20;;;11.00;99.90;;;;;;5025368;28;20103;-55
2023/01/13 00:06:02;;;;;;;2.05;0.93;;;10.90;99.90;;;;;;5027153;28;20099;-54
2023/01/13 00:08:27;;;;;;;2.85;1.30;;;10.80;99.90;;;;;;5009485;28;20037;-55
2023/01/13 00:10:53;;;;;;;2.90;1.00;;;10.80;99.90;;;;;;5025345;28;20037;-55
2023/01/13 00:13:25;;;;;;;2.63;1.10;;;10.80;99.90;;;;;;5025726;28;20037;-54
2023/01/13 00:16:20;;;;;;;4.95;1.05;;;10.90;99.90;;;;;;5026295;28;20524;-54
2023/01/13 00:18:46;;;;;;;5.45;1.25;;;10.80;99.90;;;;;;4990394;28;20037;-54
2023/01/13 00:21:22;;;;;;;2.92;1.00;;;10.80;99.90;;;;;;5023619;28;20040;-55
2023/01/13 00:23:48;;;;;;;3.97;0.95;;;10.80;99.90;;;;;;5026596;28;20397;-53
2023/01/13 00:26:25;;;;;;;5.45;1.13;;;10.90;99.90;;;;;;5009045;28;20079;-55
2023/01/13 00:28:58;;;;;;;4.68;0.90;;;10.90;99.90;;;;;;5025721;28;20126;-55
2023/01/13 00:31:25;;;;;;;3.95;0.98;;;10.90;99.90;;;;;;5025949;28;20099;-55
2023/01/13 00:33:51;;;;;;;3.97;1.00;;;10.90;99.90;;;;;;5024475;28;20045;-55
2023/01/13 00:36:18;;;;;;;3.53;0.93;;;10.90;99.90;;;;;;5025934;28;20045;-53
2023/01/13 00:38:44;;;;;;;6.47;1.00;;;11.00;99.90;;;;;;5026830;28;20037;-54
2023/01/13 00:41:15;;;;;;;4.05;1.10;;;10.80;99.90;;;;;;5025891;28;20033;-54
2023/01/13 00:43:41;;;;;;;6.07;1.20;;;10.60;99.90;;;;;;5025302;28;20053;-55
2023/01/13 00:46:09;;;;;;;5.55;1.00;;;10.70;99.90;;;;;;5026151;28;21301;-55
2023/01/13 00:48:36;;;;;;;7.60;1.80;;;10.70;99.90;;;;;;5025212;28;20589;-56
2023/01/13 00:51:10;;;;;;;4.78;1.35;;;10.70;99.90;;;;;;5024738;28;20083;-54
2023/01/13 00:53:38;;;;;;;6.53;1.13;;;10.80;99.90;;;;;;5025437;28;20749;-54
2023/01/13 00:56:07;;;;;;;7.05;1.55;;;10.70;99.90;;;;;;5025334;28;20043;-54
2023/01/13 00:58:33;;;;;;;6.95;1.20;;;10.60;99.90;;;;;;5024928;28;20037;-54
2023/01/13 01:01:04;;;;;;;6.10;1.27;;;10.60;99.90;;;;;;5025448;28;20033;-54
2023/01/13 01:03:30;;;;;;;8.07;1.23;;;10.50;99.90;;;;;;5009161;28;21910;-55
2023/01/13 01:06:02;;;;;;;7.88;1.77;;;10.60;99.90;;;;;;5007880;28;20509;-55
2023/01/13 01:08:27;;;;;;;6.25;1.30;;;10.50;99.90;;;;;;5021677;28;20108;-54
2023/01/13 01:11:00;;;;;;;7.90;2.28;;;10.50;99.90;;;;;;5028838;28;20382;-56
2023/01/13 01:13:26;;;;;;;;;;;10.50;99.90;;;;;;5010071;28;20037;-54
2023/01/13 01:15:51;;;;;;;7.70;1.45;;;10.40;99.90;;;;;;5017677;28;19917;-55
2023/01/13 01:18:17;;;;;;;8.65;1.60;;;10.40;99.90;;;;;;5016097;28;20132;-54
2023/01/13 01:20:42;;;;;;;7.70;1.45;;;10.40;99.90;;;;;;5029478;28;20112;-55
2023/01/13 01:23:08;;;;;;;10.93;2.05;;;10.40;99.90;;;;;;5025739;28;20034;-53
2023/01/13 01:25:33;;;;;;;7.88;1.60;;;10.40;99.90;;;;;;5004225;28;20042;-55
2023/01/13 01:27:59;;;;;;;12.40;2.10;;;10.30;99.90;;;;;;5005937;28;20038;-55
2023/01/13 01:30:25;;;;;;;8.88;1.80;;;10.30;99.90;;;;;;5015622;28;20034;-55
2023/01/13 01:32:50;;;;;;;16.85;2.08;;;10.30;99.90;;;;;;5024918;28;20029;-55
2023/01/13 01:35:16;;;;;;;13.55;1.98;;;10.30;99.90;;;;;;5025350;28;20071;-55
2023/01/13 01:37:41;;;;;;;12.90;2.30;;;10.30;99.90;;;;;;5032268;28;20080;-54
2023/01/13 01:40:08;;;;;;;12.68;1.88;;;10.30;99.90;;;;;;5022363;28;20044;-56
2023/01/13 01:45:23;;;;;;;15.52;2.15;;;10.30;99.90;;;;;;5026156;28;20283;-55
2023/01/13 01:47:55;;;;;;;12.10;2.30;;;10.30;99.90;;;;;;5030030;28;20045;-55
2023/01/13 01:50:21;;;;;;;17.88;3.25;;;10.30;99.90;;;;;;5038376;28;20123;-56
2023/01/13 01:52:52;;;;;;;15.27;2.72;;;10.30;99.90;;;;;;5026621;28;20032;-55
2023/01/13 01:55:25;;;;;;;12.23;1.98;;;10.20;99.90;;;;;;5023372;28;20037;-54
2023/01/13 01:58:02;;;;;;;13.35;2.25;;;10.20;99.90;;;;;;5033598;28;20045;-55
2023/01/13 02:00:28;;;;;;;14.32;2.33;;;10.20;99.90;;;;;;5023761;28;20366;-56
2023/01/13 02:02:56;;;;;;;12.05;2.45;;;10.10;99.90;;;;;;5034644;28;20072;-56
2023/01/13 02:05:22;;;;;;;13.70;2.10;;;10.00;99.90;;;;;;5019350;28;20509;-53
2023/01/13 02:07:50;;;;;;;14.35;2.42;;;9.90;99.90;;;;;;5025765;28;20033;-55
2023/01/13 02:10:20;;;;;;;14.90;2.42;;;9.80;99.90;;;;;;5031374;28;20033;-54
2023/01/13 02:12:47;;;;;;;15.93;2.17;;;9.90;99.90;;;;;;5025144;28;20029;-55
2023/01/13 02:15:23;;;;;;;11.10;2.15;;;9.90;99.90;;;;;;5037119;28;20404;-55
2023/01/13 02:18:00;;;;;;;12.32;2.25;;;10.00;99.90;;;;;;5025120;28;20057;-54
2023/01/13 02:20:37;;;;;;;13.85;2.00;;;9.90;99.90;;;;;;5010562;28;20060;-55
2023/01/13 02:27:00;;;;;;;16.05;2.53;;;10.00;99.90;;;;;;4999590;28;20045;-56
2023/01/13 02:32:58;;;;;;;13.15;2.05;;;10.00;99.90;;;;;;5021499;28;20044;-55
2023/01/13 02:35:32;;;;;;;14.63;1.73;;;9.90;99.90;;;;;;5025211;28;20040;-54
2023/01/13 02:38:01;;;;;;;15.32;2.17;;;9.90;99.90;;;;;;5029229;28;20045;-56
2023/01/13 02:44:05;;;;;;;14.75;2.40;;;9.80;99.90;;;;;;5014893;28;20121;-55
2023/01/13 02:44:07;;;;;;;14.85;2.58;;;9.80;99.90;;;;;;5005230;28;20060;-55
2023/01/13 02:46:47;;;;;;;17.20;2.95;;;9.70;99.90;;;;;;5028244;28;20129;-55
2023/01/13 02:49:30;;;;;;;18.30;2.47;;;9.70;99.90;;;;;;5021102;28;20127;-54
2023/01/13 02:52:04;;;;;;;15.95;2.63;;;9.60;99.90;;;;;;5025894;28;20485;-54
2023/01/13 02:54:34;;;;;;;16.25;2.78;;;9.70;99.90;;;;;;5023569;28;20112;-55
2023/01/13 02:57:01;;;;;;;17.80;3.22;;;9.60;99.90;;;;;;5026839;28;20544;-55
2023/01/13 02:59:28;;;;;;;19.42;3.22;;;9.60;99.90;;;;;;5015467;28;20037;-56
2023/01/13 03:01:56;;;;;;;18.92;3.22;;;9.60;99.90;;;;;;5015803;28;20061;-54
2023/01/13 03:04:45;;;;;;;18.83;3.47;;;9.60;99.90;;;;;;5027652;28;20117;-55
2023/01/13 03:07:18;;;;;;;17.63;2.95;;;9.60;99.90;;;;;;5023751;28;20479;-55
2023/01/13 03:10:07;;;;;;;;;;;9.60;99.90;;;;;;5026710;28;20476;-55
2023/01/13 03:12:55;;;;;;;20.08;3.45;;;9.60;99.90;;;;;;5026291;28;19935;-56
2023/01/13 03:15:47;;;;;;;16.10;2.83;;;9.30;99.90;;;;;;5027554;28;20022;-55
2023/01/13 03:18:15;;;;;;;18.92;3.08;;;9.30;99.90;;;;;;4991736;28;20033;-55
2023/01/13 03:20:50;;;;;;;19.85;3.03;;;9.20;99.90;;;;;;5028215;28;20488;-54
2023/01/13 03:23:28;;;;;;;19.20;3.38;;;9.30;99.90;;;;;;5020419;28;20510;-54
2023/01/13 03:26:14;;;;;;;12.48;2.10;;;9.30;99.90;;;;;;5024725;28;20056;-54
2023/01/13 03:28:47;;;;;;;15.43;2.17;;;9.20;99.90;;;;;;5026463;28;20428;-55
2023/01/13 03:31:16;;;;;;;;;;;9.00;99.90;;;;;;5021826;28;20029;-55
2023/01/13 03:33:56;;;;;;;15.05;3.05;;;9.00;99.90;;;;;;5026856;28;19953;-53
2023/01/13 03:36:25;;;;;;;12.43;2.22;;;9.10;99.90;;;;;;5031737;28;20116;-55
2023/01/13 03:38:55;;;;;;;13.15;1.80;;;9.10;99.90;;;;;;5017767;28;20034;-54
2023/01/13 03:41:28;;;;;;;15.63;1.95;;;9.10;99.90;;;;;;5025137;28;20084;-55
2023/01/13 03:44:21;;;;;;;7.95;1.77;;;9.20;99.90;;;;;;5025383;28;20033;-55
2023/01/13 03:47:02;;;;;;;8.88;1.60;;;9.00;99.90;;;;;;5028546;28;20037;-54
2023/01/13 03:49:38;;;;;;;11.77;1.45;;;9.00;99.90;;;;;;5019664;28;20033;-56
2023/01/13 03:52:07;;;;;;;13.45;1.73;;;9.00;99.90;;;;;;5018237;28;20448;-55
2023/01/13 03:54:40;;;;;;;9.35;1.65;;;8.90;99.90;;;;;;5027213;28;20029;-54
2023/01/13 03:57:08;;;;;;;;;;;8.80;99.90;;;;;;5024539;28;20033;-53
2023/01/13 03:59:41;;;;;;;12.55;1.95;;;8.60;99.90;;;;;;5023522;28;19984;-55
2023/01/13 04:02:22;;;;;;;10.60;1.70;;;8.70;99.90;;;;;;5025629;28;20037;-55
2023/01/13 04:05:01;;;;;;;10.45;1.80;;;8.70;99.90;;;;;;5024810;28;20033;-55
2023/01/13 04:07:40;;;;;;;8.52;1.73;;;8.70;99.90;;;;;;5011214;28;20429;-56
2023/01/13 04:10:08;;;;;;;9.50;1.67;;;8.70;99.90;;;;;;5012246;28;20112;-55
2023/01/13 04:12:59;;;;;;;10.88;1.70;;;8.80;99.90;;;;;;5011710;28;20463;-55
2023/01/13 04:15:37;;;;;;;11.82;1.88;;;8.90;99.90;;;;;;5004532;28;20160;-55
2023/01/13 04:18:20;;;;;;;11.02;1.52;;;8.80;99.90;;;;;;5004198;28;20763;-56
2023/01/13 04:20:48;;;;;;;12.20;2.40;;;8.80;99.90;;;;;;5020504;28;20057;-55
2023/01/13 04:23:15;;;;;;;13.07;1.75;;;8.90;99.90;;;;;;5006295;28;20393;-54
2023/01/13 04:25:43;;;;;;;10.35;1.77;;;8.90;99.90;;;;;;5023154;28;20509;-54
2023/01/13 04:28:10;;;;;;;9.68;1.95;;;8.80;99.90;;;;;;5022951;28;20052;-52
2023/01/13 04:30:36;;;;;;;14.07;2.75;;;8.80;99.90;;;;;;5026344;28;20041;-54
2023/01/13 04:33:03;;;;;;;14.38;2.80;;;9.00;99.90;;;;;;5025952;28;20041;-53
2023/01/13 04:35:29;;;;;;;16.00;2.70;;;9.00;99.90;;;;;;5026188;28;20112;-54
2023/01/13 04:37:55;;;;;;;14.60;2.40;;;9.00;99.90;;;;;;5027007;28;20564;-55
2023/01/13 04:40:20;;;;;;;20.88;2.92;;;9.10;99.90;;;;;;5026718;28;20037;-54
2023/01/13 04:42:46;;;;;;;13.40;2.25;;;9.10;99.90;;;;;;5026517;28;20075;-55
2023/01/13 04:45:12;;;;;;;19.80;2.55;;;9.20;99.90;;;;;;5024902;28;20100;-55
2023/01/13 04:47:38;;;;;;;17.52;2.63;;;9.20;99.90;;;;;;5026975;28;20492;-55
2023/01/13 04:50:04;;;;;;;21.38;2.53;;;9.30;99.90;;;;;;5025182;28;20405;-55
2023/01/13 04:52:30;;;;;;;16.60;3.05;;;9.30;99.90;;;;;;5008921;28;20033;-55
2023/01/13 04:54:55;;;;;;;16.02;2.60;;;9.30;99.90;;;;;;5025120;28;20049;-55
2023/01/13 04:57:21;;;;;;;19.25;2.92;;;9.20;99.90;;;;;;5019178;28;20037;-55
2023/01/13 04:59:46;;;;;;;23.48;3.08;;;9.20;99.90;;;;;;5025311;28;20124;-56
2023/01/13 05:02:18;;;;;;;19.15;3.13;;;9.20;99.90;;;;;;5022527;28;20033;-55
2023/01/13 05:04:46;;;;;;;16.23;2.72;;;9.20;99.90;;;;;;5025437;28;20040;-54
2023/01/13 05:07:12;;;;;;;13.45;2.70;;;9.30;99.90;;;;;;5021694;28;20037;-55
2023/01/13 05:09:37;;;;;;;19.92;3.30;;;9.30;99.90;;;;;;5025580;28;20515;-54
2023/01/13 05:17:31;;;;;;;14.90;2.47;;;9.10;99.90;;;;;;5011634;28;20041;-55
2023/01/13 05:19:57;;;;;;;14.57;2.50;;;9.10;99.90;;;;;;5024616;28;20026;-56
2023/01/13 05:25:20;;;;;;;13.40;2.03;;;9.30;99.90;;;;;;5025400;28;20134;-55
2023/01/13 05:27:50;;;;;;;17.02;2.60;;;9.20;99.90;;;;;;5023394;28;20476;-54
2023/01/13 05:30:17;;;;;;;11.15;1.85;;;9.20;99.90;;;;;;5016334;28;20037;-54
2023/01/13 05:32:43;;;;;;;11.95;2.28;;;9.20;99.90;;;;;;5025740;28;20042;-55
2023/01/13 05:35:08;;;;;;;10.90;1.95;;;9.20;99.90;;;;;;5024343;28;20460;-55
2023/01/13 05:37:34;;;;;;;14.88;2.05;;;9.30;99.90;;;;;;5025587;28;20030;-54
2023/01/13 05:45:30;;;;;;;15.57;2.72;;;9.00;99.90;;;;;;5024546;28;20443;-54
2023/01/13 05:47:56;;;;;;;18.02;2.88;;;8.90;99.90;;;;;;5025396;28;20037;-55
2023/01/13 05:50:21;;;;;;;15.70;2.67;;;8.80;99.90;;;;;;5028910;28;20133;-56
2023/01/13 05:52:47;;;;;;;12.60;2.53;;;8.70;99.90;;;;;;5026211;28;20018;-55
2023/01/13 05:55:13;;;;;;;17.45;2.85;;;8.80;99.90;;;;;;5024832;28;20053;-55
2023/01/13 05:57:39;;;;;;;21.10;2.50;;;8.80;99.90;;;;;;5023018;28;20108;-55
2023/01/13 06:00:06;;;;;;;20.27;3.22;;;8.90;99.90;;;;;;5023791;28;20029;-54
2023/01/13 06:02:32;;;;;;;12.65;2.35;;;8.70;99.90;;;;;;5025074;28;20041;-56
2023/01/13 06:04:57;;;;;;;14.65;2.22;;;8.80;99.90;;;;;;5024274;28;20426;-55
2023/01/13 06:07:23;;;;;;;9.80;2.30;;;8.70;99.90;;;;;;5025968;28;20037;-54
2023/01/13 06:09:48;;;;;;;14.60;2.28;;;8.60;99.90;;;;;;5025597;28;20057;-54
2023/01/13 06:12:14;;;;;;;15.02;2.75;;;8.60;99.90;;;;;;5025049;28;20051;-55
2023/01/13 06:14:40;;;;;;;13.95;2.30;;;8.60;99.90;;;;;;5024442;28;20036;-56
2023/01/13 06:17:11;;;;;;;12.98;2.38;;;8.60;99.90;;;;;;5025966;28;20040;-55
2023/01/13 06:19:37;;;;;;;13.15;1.77;;;8.50;99.90;;;;;;5024986;28;20041;-55
2023/01/13 06:22:37;;;;;;;14.40;2.15;;;8.50;99.90;;;;;;5024199;28;20090;-55
2023/01/13 06:25:03;;;;;;;15.55;2.05;;;8.60;99.90;;;;;;5022090;28;20141;-55
2023/01/13 06:27:29;;;;;;;15.32;2.90;;;8.70;99.90;;;;;;5025801;28;20512;-55
2023/01/13 06:29:57;;;;;;;14.35;2.58;;;8.60;99.90;;;;;;5027051;28;20045;-54
2023/01/13 06:32:38;;;;;;;15.98;2.40;;;8.70;99.90;;;;;;5021547;28;20493;-54
2023/01/13 06:35:07;;;;;;;12.15;1.75;;;8.50;99.90;;;;;;5026876;28;20069;-55
2023/01/13 06:37:34;;;;;;;15.88;2.30;;;8.40;99.90;;;;;;5027927;28;20069;-56
2023/01/13 06:40:02;;;;;;;11.90;2.38;;;8.40;99.90;;;;;;5028842;28;20034;-53
2023/01/13 06:45:16;;;;;;;13.90;2.00;;;8.50;99.90;;;;;;5021281;28;20550;-55
2023/01/13 06:47:42;;;;;;;14.05;2.25;;;8.60;99.90;;;;;;5027142;28;20049;-55
2023/01/13 06:50:08;;;;;;;13.18;2.13;;;8.50;99.90;;;;;;5027029;28;20144;-55
2023/01/13 06:52:34;;;;;;;11.70;2.45;;;8.60;99.90;;;;;;5020998;28;20084;-54
2023/01/13 06:54:59;;;;;;;12.32;2.00;;;8.60;99.90;;;;;;5027685;28;20448;-55
2023/01/13 06:57:25;;;;;;;12.35;2.53;;;8.60;99.90;;;;;;5024046;28;20913;-56
2023/01/13 06:59:50;;;;;;;11.30;1.92;;;8.60;99.90;;;;;;5029940;28;20415;-55
2023/01/13 07:02:16;;;;;;;16.92;2.22;;;8.60;99.90;;;;;;5022188;28;20056;-54
2023/01/13 07:04:43;;;;;;;14.95;2.42;;;8.50;99.90;;;;;;5024058;28;20065;-55
2023/01/13 07:07:08;;;;;;;14.32;2.00;;;8.60;99.90;;;;;;5029523;28;20053;-57
2023/01/13 07:09:34;;;;;;;17.48;2.20;;;8.70;99.90;;;;;;5025597;28;20666;-56
2023/01/13 07:11:59;;;;;;;13.30;2.50;;;8.70;99.90;;;;;;5027309;28;20084;-57
2023/01/13 07:17:09;;;;;;;11.85;1.90;;;8.50;99.90;;;;;;5022788;28;20036;-56
2023/01/13 07:19:35;;;;;;;14.35;2.17;;;8.60;99.90;;;;;;5024623;28;20037;-56
2023/01/13 07:22:01;;;;;;;12.95;1.92;;;8.60;99.90;;;;;;5020667;28;20507;-57
2023/01/13 07:24:26;;;;;;;13.77;2.08;;;8.60;99.90;;;;;;5018851;28;20061;-56
2023/01/13 07:26:52;;;;;;;10.07;1.90;;;8.60;99.90;;;;;;5021224;28;20080;-55
2023/01/13 07:29:17;;;;;;;15.90;2.42;;;8.70;99.90;;;;;;5025726;28;20034;-56
2023/01/13 07:31:43;;;;;;;13.38;2.10;;;8.70;99.90;;;;;;5025737;28;20473;-56
2023/01/13 07:34:09;;;;;;;11.55;1.95;;;8.80;99.90;;;;;;5025750;28;20447;-58
2023/01/13 07:36:34;;;;;;;13.88;2.22;;;8.80;99.90;;;;;;5028222;28;20049;-57
2023/01/13 07:39:00;;;;;;;13.52;2.17;;;8.80;99.90;;;;;;5024718;28;20030;-56
2023/01/13 07:44:10;;;;;;;14.40;2.55;;;8.90;99.90;;;;;;5029453;28;20075;-55
2023/01/13 07:46:37;;;;;;;13.70;2.38;;;8.90;99.90;;;;;;5026892;28;20496;-57
2023/01/13 07:49:04;;;;;;;10.65;2.45;;;9.00;99.90;;;;;;5024441;28;20043;-57
2023/01/13 07:51:30;;;;;;;11.70;2.25;;;8.90;99.90;;;;;;5024331;28;20042;-55
2023/01/13 07:53:56;;;;;;;14.05;2.00;;;9.00;99.90;;;;;;5027704;28;20060;-56
2023/01/13 07:56:21;;;;;;;11.23;2.30;;;9.00;99.90;;;;;;5027289;28;20134;-56
2023/01/13 07:58:49;;;;;;;15.00;2.53;;;9.00;99.90;;;;;;5032381;28;20100;-57
2023/01/13 08:01:16;;;;;;;15.18;2.38;;;9.00;99.90;;;;;;5020592;28;20037;-56
2023/01/13 08:03:42;;;;;;;13.30;2.53;;;9.10;99.90;;;;;;5029276;28;20122;-56
2023/01/13 08:06:10;;;;;;;14.40;2.55;;;9.10;99.90;;;;;;5025045;28;20048;-57
2023/01/13 08:08:35;;;;;;;15.85;2.70;;;9.00;99.90;;;;;;5029314;28;20083;-56
2023/01/13 08:11:03;;;;;;;14.32;2.40;;;9.00;99.90;;;;;;5027946;28;20493;-54
2023/01/13 08:13:29;;;;;;;13.95;2.80;;;8.90;99.90;;;;;;5025530;28;20393;-55
2023/01/13 08:16:02;;;;;;;9.80;2.28;;;9.00;99.90;;;;;;5024764;28;20037;-56
2023/01/13 08:18:30;;;;;;;19.13;3.10;;;9.00;99.90;;;;;;5024416;28;20491;-55
2023/01/13 08:21:01;;;;;;;17.10;2.50;;;9.00;99.90;;;;;;5023877;28;20068;-54
2023/01/13 08:23:27;;;;;;;19.10;3.20;;;9.10;99.90;;;;;;5025882;28;20033;-55
2023/01/13 08:25:52;;;;;;;14.40;2.95;;;9.10;99.90;;;;;;5025551;28;20040;-57
2023/01/13 08:28:18;;;;;;;21.00;2.90;;;9.10;99.90;;;;;;5025112;28;20052;-57
2023/01/13 08:30:44;;;;;;;14.95;2.83;;;9.10;99.90;;;;;;5024725;28;20365;-56
2023/01/13 08:33:11;;;;;;;12.70;2.60;;;9.00;99.90;;;;;;5023723;28;20029;-57
2023/01/13 08:35:38;;;;;;;10.18;2.10;;;9.00;99.90;;;;;;5026000;28;20040;-56
2023/01/13 08:38:05;;;;;;;15.95;2.17;;;8.90;99.90;;;;;;5025284;28;20030;-56
2023/01/13 08:40:31;;;;;;;18.30;2.40;;;9.00;99.90;;;;;;5021165;28;20025;-56
2023/01/13 08:42:57;;;;;;;15.23;2.75;;;9.00;99.90;;;;;;5024562;28;20087;-57
2023/01/13 08:45:22;;;;;;;17.20;2.50;;;9.00;99.90;;;;;;5024485;28;20112;-55
2023/01/13 08:47:48;;;;;;;13.82;2.17;;;9.10;99.90;;;;;;5024082;28;20088;-56
2023/01/13 08:50:13;;;;;;;13.73;2.17;;;9.10;99.90;;;;;;5009110;28;20037;-57
2023/01/13 08:52:40;;;;;;;16.52;2.38;;;9.10;99.90;;;;;;5024232;28;20045;-56
2023/01/13 08:55:06;;;;;;;11.07;2.30;;;9.10;99.90;;;;;;5024178;28;20112;-57
2023/01/13 08:57:32;;;;;;;12.82;2.30;;;9.10;99.90;;;;;;5024745;28;20040;-57
2023/01/13 08:59:57;;;;;;;17.33;3.10;;;9.10;99.90;;;;;;5024408;28;20115;-56
2023/01/13 09:02:24;;;;;;;18.30;2.45;;;9.20;99.90;;;;;;5024689;28;20034;-57
2023/01/13 09:04:50;;;;;;;19.88;2.53;;;9.10;99.90;;;;;;5023404;28;20537;-55
2023/01/13 09:07:15;;;;;;;20.95;3.28;;;9.20;99.90;;;;;;5024763;28;20045;-56
2023/01/13 09:09:41;;;;;;;15.85;2.80;;;9.20;99.90;;;;;;5028279;28;20042;-56
2023/01/13 09:14:54;;;;;;;14.77;2.72;;;9.30;99.90;;;;;;5023650;28;20106;-56
2023/01/13 09:17:20;;;;;;;17.58;3.20;;;9.20;99.90;;;;;;5006708;28;20124;-56
2023/01/13 09:19:45;;;;;;;18.17;2.63;;;9.10;99.90;;;;;;5023132;28;20037;-56
2023/01/13 09:22:16;;;;;;;25.83;3.78;;;9.00;99.90;;;;;;5023984;28;20038;-55
2023/01/13 09:24:42;;;;;;;14.18;2.92;;;9.10;99.90;;;;;;5021027;28;20480;-57
2023/01/13 09:27:09;;;;;;;16.50;3.33;;;9.00;99.90;;;;;;5024107;28;20199;-57
2023/01/13 09:29:35;;;;;;;12.52;2.67;;;9.10;99.90;;;;;;5023688;28;20033;-57
2023/01/13 09:32:00;;;;;;;16.65;2.90;;;9.20;99.90;;;;;;5023564;28;20048;-56
2023/01/13 09:37:10;;;;;;;17.23;3.35;;;9.10;99.90;;;;;;5023172;28;20037;-55
2023/01/13 09:39:36;;;;;;;18.77;3.30;;;9.20;99.90;;;;;;5026327;28;20041;-56
2023/01/13 09:45:20;;;;;;;17.48;3.25;;;9.30;99.90;;;;;;5021392;28;20040;-56
2023/01/13 09:47:55;;;;;;;;;;;9.40;99.90;;;;;;5024339;28;20033;-56
2023/01/13 09:50:32;;;;;;;24.95;3.03;;;9.30;99.90;;;;;;5023318;28;19924;-56
2023/01/13 09:52:59;;;;;;;20.48;3.63;;;9.30;99.90;;;;;;5019116;28;20041;-57
2023/01/13 09:55:35;;;;;;;18.88;3.25;;;9.30;99.90;;;;;;5023567;28;20033;-57
2023/01/13 09:58:11;;;;;;;21.25;3.63;;;9.40;99.90;;;;;;5027647;28;20779;-57
2023/01/13 10:00:44;;;;;;;17.15;3.30;;;9.40;99.90;;;;;;5024552;28;20029;-57
2023/01/13 10:03:29;;;;;;;22.40;3.85;;;9.50;99.90;;;;;;5025961;28;20033;-54
2023/01/13 10:06:07;;;;;;;20.33;4.53;;;9.50;99.90;;;;;;5025905;28;20122;-57
2023/01/13 10:08:37;;;;;;;19.50;3.28;;;9.60;99.90;;;;;;5023190;28;20459;-57
2023/01/13 10:14:02;;;;;;;20.92;3.45;;;9.50;99.90;;;;;;5026374;28;20060;-56
2023/01/13 10:16:48;;;;;;;23.98;4.38;;;9.50;99.90;;;;;;5027399;28;20029;-56
2023/01/13 10:19:36;;;;;;;22.83;4.30;;;9.60;99.90;;;;;;5025314;28;20057;-57
2023/01/13 10:22:19;;;;;;;21.85;3.50;;;9.60;99.90;;;;;;5028027;28;20040;-57
2023/01/13 10:25:19;;;;;;;26.70;3.97;;;9.60;99.90;;;;;;5007173;28;20044;-57
2023/01/13 10:27:48;;;;;;;17.10;2.88;;;9.70;99.90;;;;;;5026034;28;20029;-57
2023/01/13 10:30:29;;;;;;;19.13;3.45;;;9.70;99.90;;;;;;5020474;28;20033;-56
2023/01/13 10:33:10;;;;;;;21.70;3.80;;;9.80;99.90;;;;;;5027426;28;20033;-57
2023/01/13 10:35:49;;;;;;;26.25;3.65;;;9.90;99.90;;;;;;5019439;28;20030;-55
2023/01/13 10:38:17;;;;;;;23.48;3.30;;;9.90;99.90;;;;;;5001339;28;20034;-56
2023/01/13 10:40:48;;;;;;;21.45;4.25;;;10.00;99.90;;;;;;5013364;28;20469;-57
2023/01/13 10:43:14;;;;;;;26.52;3.72;;;10.10;99.90;;;;;;5027414;28;20499;-57
2023/01/13 10:45:39;;;;;;;24.15;3.63;;;10.20;99.90;;;;;;5011877;28;20045;-56
2023/01/13 10:48:12;;;;;;;23.15;4.55;;;10.20;99.90;;;;;;5027094;28;20033;-56
2023/01/13 10:50:40;;;;;;;23.13;3.73;;;10.20;99.90;;;;;;5023136;28;20484;-56
2023/01/13 10:53:23;;;;;;;18.02;3.97;;;10.20;99.90;;;;;;5025791;28;20380;-55
2023/01/13 10:56:00;;;;;;;23.35;3.80;;;10.10;99.90;;;;;;5027148;28;20037;-57
2023/01/13 10:58:27;;;;;;;23.73;4.47;;;10.00;99.90;;;;;;5014863;28;20065;-56
2023/01/13 11:01:01;;;;;;;23.83;4.20;;;9.90;99.90;;;;;;5013447;28;20076;-56
2023/01/13 11:03:36;;;;;;;23.15;4.47;;;9.80;99.90;;;;;;5017798;28;20103;-57
2023/01/13 11:06:02;;;;;;;26.02;3.72;;;9.70;99.90;;;;;;5026779;28;20611;-56
2023/01/13 11:08:40;;;;;;;24.23;3.60;;;9.70;99.90;;;;;;5025760;28;20698;-57
2023/01/13 11:11:38;;;;;;;21.77;4.00;;;9.70;99.90;;;;;;5007714;28;20141;-56
2023/01/13 11:17:04;;;;;;;25.58;4.32;;;9.80;99.90;;;;;;5027958;28;20111;-57
2023/01/13 11:19:31;;;;;;;16.95;3.50;;;9.80;99.90;;;;;;5019036;28;20099;-57
2023/01/13 11:22:16;;;;;;;22.38;4.03;;;9.80;99.90;;;;;;5028537;28;20109;-57
2023/01/13 11:24:49;;;;;;;20.20;3.38;;;9.80;99.90;;;;;;5031123;28;20108;-55
2023/01/13 11:27:18;;;;;;;;;;;9.80;99.90;;;;;;5032412;28;20489;-56
2023/01/13 11:30:19;;;;;;;17.98;3.28;;;9.80;99.90;;;;;;5028096;28;20507;-55
2023/01/13 11:33:00;;;;;;;20.38;3.55;;;9.90;99.90;;;;;;4938531;28;20547;-55
2023/01/13 11:35:28;;;;;;;21.23;3.13;;;10.00;99.90;;;;;;5020142;28;20397;-57
2023/01/13 11:38:03;;;;;;;19.70;3.42;;;10.00;99.90;;;;;;5024656;28;20451;-57
2023/01/13 11:40:49;;;;;;;20.60;3.72;;;9.90;99.90;;;;;;5026166;28;20037;-55
2023/01/13 11:43:25;;;;;;;18.70;3.40;;;9.70;99.90;;;;;;5026406;28;20091;-56
2023/01/13 11:45:59;;;;;;;29.77;5.53;;;9.70;99.90;;;;;;5027203;28;20061;-57
2023/01/13 11:48:29;;;;;;;18.63;3.30;;;9.70;99.90;;;;;;5026308;28;20064;-56
2023/01/13 11:51:13;;;;;;;19.58;3.45;;;9.60;99.90;;;;;;5025089;28;20091;-57
2023/01/13 11:53:56;;;;;;;19.98;3.92;;;9.60;99.90;;;;;;5007290;28;20163;-56
2023/01/13 11:56:44;;;;;;;20.67;4.05;;;9.50;99.90;;;;;;5016928;28;20497;-58
2023/01/13 11:59:42;;;;;;;24.70;4.00;;;9.50;99.90;;;;;;5025645;28;20030;-57
2023/01/13 12:02:30;;;;;;;23.80;3.80;;;9.30;99.90;;;;;;5026289;28;20090;-57
2023/01/13 12:05:17;;;;;;;20.05;3.40;;;9.30;99.90;;;;;;5025289;28;20065;-57
2023/01/13 12:07:57;;;;;;;25.17;3.72;;;9.10;99.90;;;;;;5022775;28;20037;-58
2023/01/13 12:10:27;;;;;;;16.33;2.80;;;9.10;99.90;;;;;;5023178;28;20491;-57
2023/01/13 12:13:22;;;;;;;14.70;2.17;;;8.80;99.90;;;;;;5025674;28;20504;-56
2023/01/13 12:16:10;;;;;;;11.68;2.35;;;8.60;99.90;;;;;;5025179;28;20172;-57
2023/01/13 12:19:06;;;;;;;10.63;2.05;;;8.50;99.90;;;;;;5025254;28;20029;-56
2023/01/13 12:21:59;;;;;;;9.32;1.70;;;8.50;99.90;;;;;;5021184;28;20026;-57
2023/01/13 12:24:54;;;;;;;13.70;2.25;;;8.40;99.90;;;;;;5023792;28;20116;-57
2023/01/13 12:27:36;;;;;;;17.13;2.70;;;8.20;99.90;;;;;;5005998;28;20037;-57
2023/01/13 12:30:30;;;;;;;13.63;2.60;;;8.30;99.90;;;;;;5005350;28;20540;-56
2023/01/13 12:33:01;;;;;;;;;;;8.50;99.90;;;;;;5020158;28;20131;-56
2023/01/13 12:35:40;;;;;;;17.63;3.15;;;8.70;99.90;;;;;;5008682;28;19921;-57
2023/01/13 12:38:15;;;;;;;19.40;3.50;;;8.80;99.90;;;;;;5013864;28;20045;-58
2023/01/13 12:40:50;;;;;;;23.23;3.35;;;8.80;99.90;;;;;;5017217;28;20033;-56
2023/01/13 12:46:33;;;;;;;18.52;3.60;;;8.80;99.90;;;;;;5024963;28;20044;-56
2023/01/13 12:49:04;;;;;;;23.15;3.50;;;8.80;99.90;;;;;;5005055;28;20035;-57
2023/01/13 12:51:56;;;;;;;19.10;3.90;;;8.80;99.90;;;;;;5024249;28;20786;-56
2023/01/13 12:54:39;;;;;;;21.52;3.53;;;8.90;99.90;;;;;;5022978;28;20045;-57
2023/01/13 12:57:32;;;;;;;22.77;4.18;;;8.90;99.90;;;;;;5025023;28;20461;-56
2023/01/13 12:59:58;;;;;;;24.92;3.80;;;9.00;99.90;;;;;;5021265;28;20488;-57
2023/01/13 13:02:31;;;;;;;21.90;3.53;;;8.90;99.90;;;;;;5023643;28;20091;-57
2023/01/13 13:05:19;;;;;;;27.08;3.92;;;8.90;99.90;;;;;;5025779;28;20427;-57
2023/01/13 13:07:49;;;;;;;28.58;3.88;;;9.00;99.90;;;;;;5023796;28;20038;-56
2023/01/13 13:10:28;;;;;;;20.92;4.15;;;9.10;99.90;;;;;;5021076;28;20085;-56
2023/01/13 13:15:41;;;;;;;20.42;3.65;;;9.20;99.90;;;;;;5026299;28;20044;-57
2023/01/13 13:18:16;;;;;;;17.23;3.75;;;9.20;99.90;;;;;;5024597;28;20029;-57
2023/01/13 13:21:07;;;;;;;20.90;3.33;;;9.10;99.90;;;;;;5022205;28;20041;-58
2023/01/13 13:23:36;;;;;;;19.05;3.75;;;9.10;99.90;;;;;;5008052;28;20038;-57
2023/01/13 13:26:20;;;;;;;15.00;3.63;;;9.10;99.90;;;;;;5024662;28;20029;-57
2023/01/13 13:29:25;;;;;;;17.80;3.20;;;9.20;99.90;;;;;;5024643;28;20549;-56
2023/01/13 13:32:06;;;;;;;18.48;3.28;;;9.10;99.90;;;;;;4970330;28;20388;-57
2023/01/13 13:34:51;;;;;;;15.15;3.22;;;9.10;99.90;;;;;;5012822;28;20026;-57
2023/01/13 13:46:45;;;;;;;18.90;3.10;;;9.00;99.90;;;;;;5000118;28;20034;-57
2023/01/13 13:48:53;;;;;;;15.40;3.67;;;9.10;99.90;;;;;;5027781;28;20550;-57
2023/01/13 13:51:23;;;;;;;19.58;3.65;;;9.10;99.90;;;;;;5025924;28;20029;-57
2023/01/13 13:53:49;;;;;;;23.65;3.65;;;9.00;99.90;;;;;;5025258;28;20117;-55
2023/01/13 13:56:19;;;;;;;30.67;4.32;;;9.00;99.90;;;;;;5027905;28;20116;-57
2023/01/13 13:58:46;;;;;;;18.55;3.80;;;9.10;99.90;;;;;;5027564;28;20105;-56
2023/01/13 14:01:23;;;;;;;23.65;4.75;;;9.00;99.90;;;;;;5027638;28;20045;-57
2023/01/13 14:04:10;;;;;;;19.60;3.70;;;9.00;99.90;;;;;;5026869;28;20095;-57
2023/01/13 14:06:35;;;;;;;25.25;4.20;;;9.00;99.90;;;;;;5028996;28;20044;-56
2023/01/13 14:09:02;;;;;;;25.67;3.90;;;8.90;99.90;;;;;;5029154;28;20037;-57
2023/01/13 14:11:31;;;;;;;23.70;4.82;;;9.00;99.90;;;;;;5028149;28;20473;-57
2023/01/13 14:14:10;;;;;;;20.63;3.85;;;8.90;99.90;;;;;;5027517;28;20064;-57